createdAt,value
2018-02-27T00:00:41.649Z,-7.58
2018-02-27T00:01:41.590Z,-7.52
2018-02-27T00:02:41.470Z,-7.61
2018-02-27T00:03:41.374Z,-7.52
2018-02-27T00:04:41.282Z,-7.50
2018-02-27T00:05:41.195Z,-7.54
2018-02-27T00:06:41.094Z,-7.53
2018-02-27T00:07:41.007Z,-7.65
2018-02-27T00:08:40.911Z,-7.64
2018-02-27T00:09:40.833Z,-7.56
2018-02-27T00:10:40.725Z,-7.68
2018-02-27T00:11:40.635Z,-7.61
2018-02-27T00:12:40.542Z,-7.68
2018-02-27T00:13:40.453Z,-7.72
2018-02-27T00:14:40.358Z,-7.74
2018-02-27T00:15:40.266Z,-7.65
2018-02-27T00:16:40.174Z,-7.67
2018-02-27T00:17:40.090Z,-7.63
2018-02-27T00:18:39.987Z,-7.72
2018-02-27T00:19:39.894Z,-7.72
2018-02-27T00:20:39.799Z,-7.68
2018-02-27T00:21:39.711Z,-7.79
2018-02-27T00:22:39.614Z,-7.67
2018-02-27T00:23:39.527Z,-7.74
2018-02-27T00:24:39.434Z,-7.72
2018-02-27T00:25:39.342Z,-7.65
2018-02-27T00:26:39.246Z,-7.71
2018-02-27T00:27:39.154Z,-7.70
2018-02-27T00:28:39.062Z,-7.67
2018-02-27T00:29:38.967Z,-7.68
2018-02-27T00:30:38.877Z,-7.68
2018-02-27T00:31:38.786Z,-7.72
2018-02-27T00:32:38.695Z,-7.70
2018-02-27T00:33:38.599Z,-7.61
2018-02-27T00:34:38.507Z,-7.70
2018-02-27T00:35:38.414Z,-7.65
2018-02-27T00:36:38.321Z,-7.68
2018-02-27T00:37:38.228Z,-7.72
2018-02-27T00:38:38.134Z,-7.68
2018-02-27T00:39:38.042Z,-7.67
2018-02-27T00:40:37.950Z,-7.78
2018-02-27T00:41:37.859Z,-7.74
2018-02-27T00:42:37.769Z,-7.74
2018-02-27T00:43:37.673Z,-7.82
2018-02-27T00:44:37.581Z,-7.79
2018-02-27T00:45:37.489Z,-7.74
2018-02-27T00:46:37.396Z,-7.78
2018-02-27T00:47:37.303Z,-7.82
2018-02-27T00:48:37.226Z,-7.75
2018-02-27T00:49:37.116Z,-7.78
2018-02-27T00:50:37.026Z,-7.82
2018-02-27T00:51:36.932Z,-7.88
2018-02-27T00:52:36.838Z,-7.75
2018-02-27T00:53:36.750Z,-7.74
2018-02-27T00:54:36.654Z,-7.82
2018-02-27T00:55:36.562Z,-7.75
2018-02-27T00:56:36.475Z,-7.83
2018-02-27T00:57:36.375Z,-7.82
2018-02-27T00:58:36.298Z,-7.92
2018-02-27T00:59:36.190Z,-7.91
2018-02-27T01:00:36.100Z,-7.85
2018-02-27T01:01:36.007Z,-7.85
2018-02-27T01:02:35.916Z,-7.71
2018-02-27T01:03:35.819Z,-7.75
2018-02-27T01:04:35.729Z,-7.72
2018-02-27T01:05:35.645Z,-7.74
2018-02-27T01:06:35.542Z,-7.72
2018-02-27T01:07:35.450Z,-7.72
2018-02-27T01:08:35.359Z,-7.83
2018-02-27T01:09:35.266Z,-7.78
2018-02-27T01:10:35.175Z,-7.89
2018-02-27T01:11:35.080Z,-7.75
2018-02-27T01:12:34.989Z,-7.86
2018-02-27T01:13:34.895Z,-7.74
2018-02-27T01:14:34.803Z,-7.83
2018-02-27T01:15:34.710Z,-7.79
2018-02-27T01:16:34.625Z,-7.79
2018-02-27T01:17:34.526Z,-7.75
2018-02-27T01:18:34.433Z,-7.82
2018-02-27T01:19:34.339Z,-7.81
2018-02-27T01:20:34.247Z,-7.89
2018-02-27T01:21:34.156Z,-7.83
2018-02-27T01:22:34.063Z,-7.78
2018-02-27T01:23:33.969Z,-7.79
2018-02-27T01:24:33.875Z,-7.82
2018-02-27T01:25:33.785Z,-7.89
2018-02-27T01:26:33.690Z,-7.89
2018-02-27T01:27:33.599Z,-7.83
2018-02-27T01:28:33.505Z,-7.83
2018-02-27T01:29:33.414Z,-7.81
2018-02-27T01:30:33.319Z,-7.89
2018-02-27T01:31:33.228Z,-7.82
2018-02-27T01:32:33.135Z,-7.92
2018-02-27T01:33:33.043Z,-7.79
2018-02-27T01:34:32.948Z,-7.86
2018-02-27T01:35:32.859Z,-7.93
2018-02-27T01:36:32.764Z,-7.92
2018-02-27T01:37:32.675Z,-7.99
2018-02-27T01:38:32.579Z,-8.01
2018-02-27T01:39:32.489Z,-8.03
2018-02-27T01:40:32.395Z,-8.13
2018-02-27T01:41:32.302Z,-8.07
2018-02-27T01:42:32.210Z,-8.04
2018-02-27T01:43:32.118Z,-8.08
2018-02-27T01:44:32.024Z,-8.05
2018-02-27T01:45:31.935Z,-7.97
2018-02-27T01:46:31.839Z,-8.01
2018-02-27T01:47:31.747Z,-8.11
2018-02-27T01:48:31.654Z,-8.04
2018-02-27T01:49:31.561Z,-8.15
2018-02-27T01:50:31.467Z,-8.13
2018-02-27T01:51:31.392Z,-8.05
2018-02-27T01:52:31.282Z,-8.15
2018-02-27T01:53:31.190Z,-8.13
2018-02-27T01:54:31.105Z,-8.15
2018-02-27T01:55:31.010Z,-8.15
2018-02-27T01:56:30.914Z,-8.13
2018-02-27T01:57:30.818Z,-8.21
2018-02-27T01:58:30.726Z,-8.21
2018-02-27T01:59:30.631Z,-8.16
2018-02-27T02:00:30.540Z,-8.15
2018-02-27T02:01:30.456Z,-8.07
2018-02-27T02:02:30.356Z,-8.11
2018-02-27T02:03:30.262Z,-8.21
2018-02-27T02:04:30.171Z,-8.22
2018-02-27T02:05:30.079Z,-8.16
2018-02-27T02:06:29.982Z,-8.15
2018-02-27T02:07:29.890Z,-8.19
2018-02-27T02:08:29.798Z,-8.25
2018-02-27T02:09:29.705Z,-8.26
2018-02-27T02:10:29.612Z,-8.15
2018-02-27T02:11:29.518Z,-8.13
2018-02-27T02:12:29.428Z,-8.21
2018-02-27T02:13:29.338Z,-8.15
2018-02-27T02:14:29.240Z,-8.10
2018-02-27T02:15:29.147Z,-8.16
2018-02-27T02:16:29.057Z,-8.18
2018-02-27T02:17:28.966Z,-8.16
2018-02-27T02:18:28.870Z,-8.22
2018-02-27T02:19:28.781Z,-8.18
2018-02-27T02:20:28.685Z,-8.21
2018-02-27T02:21:28.593Z,-8.21
2018-02-27T02:22:28.497Z,-8.22
2018-02-27T02:23:28.414Z,-8.26
2018-02-27T02:24:28.312Z,-8.23
2018-02-27T02:25:28.220Z,-8.25
2018-02-27T02:26:28.126Z,-8.26
2018-02-27T02:27:28.043Z,-8.29
2018-02-27T02:28:27.940Z,-8.29
2018-02-27T02:29:27.859Z,-8.25
2018-02-27T02:30:27.778Z,-8.32
2018-02-27T02:31:27.666Z,-8.26
2018-02-27T02:32:27.593Z,-8.19
2018-02-27T02:33:27.477Z,-8.18
2018-02-27T02:34:27.398Z,-8.25
2018-02-27T02:35:27.293Z,-8.25
2018-02-27T02:36:27.199Z,-8.28
2018-02-27T02:37:27.105Z,-8.29
2018-02-27T02:38:27.016Z,-8.31
2018-02-27T02:39:26.920Z,-8.39
2018-02-27T02:40:26.844Z,-8.34
2018-02-27T02:41:26.734Z,-8.42
2018-02-27T02:42:26.657Z,-8.32
2018-02-27T02:43:26.550Z,-8.40
2018-02-27T02:44:26.457Z,-8.40
2018-02-27T02:45:26.364Z,-8.42
2018-02-27T02:46:26.269Z,-8.31
2018-02-27T02:47:26.177Z,-8.39
2018-02-27T02:48:26.082Z,-8.34
2018-02-27T02:49:25.990Z,-8.36
2018-02-27T02:50:25.907Z,-8.36
2018-02-27T02:51:25.806Z,-8.55
2018-02-27T02:52:25.720Z,-8.36
2018-02-27T02:53:25.618Z,-8.36
2018-02-27T02:54:25.527Z,-8.50
2018-02-27T02:55:28.278Z,-8.55
2018-02-27T02:56:25.343Z,-8.54
2018-02-27T02:57:25.251Z,-8.47
2018-02-27T02:58:25.156Z,-8.50
2018-02-27T02:59:25.073Z,-8.50
2018-02-27T03:00:24.970Z,-8.52
2018-02-27T03:01:24.877Z,-8.55
2018-02-27T03:02:24.784Z,-8.52
2018-02-27T03:03:24.690Z,-8.49
2018-02-27T03:04:24.602Z,-8.50
2018-02-27T03:05:24.514Z,-8.44
2018-02-27T03:06:24.409Z,-8.54
2018-02-27T03:07:24.319Z,-8.49
2018-02-27T03:08:24.229Z,-8.50
2018-02-27T03:09:24.142Z,-8.50
2018-02-27T03:10:24.045Z,-8.54
2018-02-27T03:11:23.949Z,-8.54
2018-02-27T03:12:23.854Z,-8.49
2018-02-27T03:13:23.762Z,-8.46
2018-02-27T03:14:23.670Z,-8.50
2018-02-27T03:15:23.572Z,-8.54
2018-02-27T03:16:23.480Z,-8.55
2018-02-27T03:17:23.393Z,-8.50
2018-02-27T03:18:23.295Z,-8.44
2018-02-27T03:19:23.201Z,-8.55
2018-02-27T03:20:23.110Z,-8.65
2018-02-27T03:21:23.017Z,-8.49
2018-02-27T03:22:22.922Z,-8.50
2018-02-27T03:23:22.843Z,-8.55
2018-02-27T03:24:22.737Z,-8.57
2018-02-27T03:25:22.644Z,-8.58
2018-02-27T03:26:22.552Z,-8.47
2018-02-27T03:27:22.458Z,-8.47
2018-02-27T03:28:22.366Z,-8.55
2018-02-27T03:29:22.272Z,-8.49
2018-02-27T03:30:22.185Z,-8.64
2018-02-27T03:31:22.085Z,-8.65
2018-02-27T03:32:21.992Z,-8.64
2018-02-27T03:33:21.900Z,-8.60
2018-02-27T03:34:21.818Z,-8.64
2018-02-27T03:35:21.727Z,-8.61
2018-02-27T03:36:21.621Z,-8.58
2018-02-27T03:37:21.527Z,-8.60
2018-02-27T03:38:21.435Z,-8.61
2018-02-27T03:39:21.346Z,-8.68
2018-02-27T03:40:21.246Z,-8.54
2018-02-27T03:41:21.158Z,-8.62
2018-02-27T03:42:21.064Z,-8.67
2018-02-27T03:43:20.970Z,-8.68
2018-02-27T03:44:20.878Z,-8.73
2018-02-27T03:45:20.783Z,-8.73
2018-02-27T03:46:20.692Z,-8.76
2018-02-27T03:47:20.594Z,-8.73
2018-02-27T03:48:20.508Z,-8.73
2018-02-27T03:49:20.408Z,-8.73
2018-02-27T03:50:20.316Z,-8.81
2018-02-27T03:51:20.224Z,-8.67
2018-02-27T03:52:20.136Z,-8.72
2018-02-27T03:53:20.040Z,-8.73
2018-02-27T03:54:19.941Z,-8.83
2018-02-27T03:55:19.850Z,-8.81
2018-02-27T03:56:19.760Z,-8.82
2018-02-27T03:57:19.667Z,-8.78
2018-02-27T03:58:19.571Z,-8.82
2018-02-27T03:59:19.478Z,-8.88
2018-02-27T04:00:19.386Z,-8.96
2018-02-27T04:01:19.291Z,-8.93
2018-02-27T04:02:19.198Z,-9.06
2018-02-27T04:03:19.105Z,-9.03
2018-02-27T04:04:19.011Z,-9.07
2018-02-27T04:05:18.920Z,-9.03
2018-02-27T04:06:18.828Z,-9.06
2018-02-27T04:07:18.732Z,-9.04
2018-02-27T04:08:18.684Z,-9.07
2018-02-27T04:09:18.544Z,-9.03
2018-02-27T04:10:18.451Z,-9.03
2018-02-27T04:11:18.358Z,-9.03
2018-02-27T04:12:18.267Z,-9.02
2018-02-27T04:13:18.172Z,-9.00
2018-02-27T04:14:18.078Z,-9.12
2018-02-27T04:15:17.986Z,-9.10
2018-02-27T04:16:17.892Z,-9.06
2018-02-27T04:17:17.799Z,-9.10
2018-02-27T04:18:17.704Z,-9.11
2018-02-27T04:19:17.611Z,-9.04
2018-02-27T04:20:17.517Z,-9.10
2018-02-27T04:21:17.425Z,-9.02
2018-02-27T04:22:17.333Z,-9.04
2018-02-27T04:23:17.237Z,-9.11
2018-02-27T04:24:17.148Z,-9.02
2018-02-27T04:25:17.051Z,-9.10
2018-02-27T04:26:16.957Z,-9.07
2018-02-27T04:27:16.863Z,-9.11
2018-02-27T04:28:16.771Z,-9.18
2018-02-27T04:29:16.676Z,-9.14
2018-02-27T04:30:16.584Z,-9.17
2018-02-27T04:31:16.491Z,-9.24
2018-02-27T04:32:16.401Z,-9.20
2018-02-27T04:33:16.305Z,-9.18
2018-02-27T04:34:16.210Z,-9.20
2018-02-27T04:35:16.116Z,-9.18
2018-02-27T04:36:16.024Z,-9.17
2018-02-27T04:37:15.929Z,-9.24
2018-02-27T04:38:15.833Z,-9.24
2018-02-27T04:39:15.740Z,-9.24
2018-02-27T04:40:15.648Z,-9.17
2018-02-27T04:41:15.555Z,-9.21
2018-02-27T04:42:15.462Z,-9.06
2018-02-27T04:43:15.369Z,-9.07
2018-02-27T04:44:15.277Z,-9.24
2018-02-27T04:45:15.183Z,-9.20
2018-02-27T04:46:15.088Z,-9.14
2018-02-27T04:47:15.000Z,-9.20
2018-02-27T04:48:14.912Z,-9.21
2018-02-27T04:49:14.809Z,-9.22
2018-02-27T04:50:14.714Z,-9.12
2018-02-27T04:51:14.620Z,-9.18
2018-02-27T04:52:14.529Z,-9.22
2018-02-27T04:53:14.435Z,-9.22
2018-02-27T04:54:14.340Z,-9.33
2018-02-27T04:55:14.245Z,-9.21
2018-02-27T04:56:14.158Z,-9.21
2018-02-27T04:57:14.078Z,-9.25
2018-02-27T04:58:13.975Z,-9.32
2018-02-27T04:59:13.874Z,-9.29
2018-02-27T05:00:13.781Z,-9.33
2018-02-27T05:01:13.750Z,-9.33
2018-02-27T05:02:13.595Z,-9.33
2018-02-27T05:03:13.499Z,-9.28
2018-02-27T05:04:13.407Z,-9.32
2018-02-27T05:05:13.315Z,-9.33
2018-02-27T05:06:13.220Z,-9.32
2018-02-27T05:07:13.139Z,-9.25
2018-02-27T05:08:13.031Z,-9.25
2018-02-27T05:09:12.940Z,-9.38
2018-02-27T05:10:12.845Z,-9.31
2018-02-27T05:11:12.751Z,-9.38
2018-02-27T05:12:12.657Z,-9.33
2018-02-27T05:13:12.578Z,-9.32
2018-02-27T05:14:12.471Z,-9.29
2018-02-27T05:15:12.378Z,-9.38
2018-02-27T05:16:12.283Z,-9.29
2018-02-27T05:17:12.203Z,-9.39
2018-02-27T05:18:12.104Z,-9.36
2018-02-27T05:19:12.001Z,-9.44
2018-02-27T05:20:11.905Z,-9.46
2018-02-27T05:21:11.816Z,-9.43
2018-02-27T05:22:11.720Z,-9.46
2018-02-27T05:23:11.627Z,-9.39
2018-02-27T05:24:11.534Z,-9.43
2018-02-27T05:25:11.442Z,-9.46
2018-02-27T05:26:11.347Z,-9.39
2018-02-27T05:27:11.253Z,-9.50
2018-02-27T05:28:11.161Z,-9.44
2018-02-27T05:29:11.072Z,-9.41
2018-02-27T05:30:10.977Z,-9.36
2018-02-27T05:31:10.881Z,-9.43
2018-02-27T05:32:10.787Z,-9.48
2018-02-27T05:33:10.695Z,-9.48
2018-02-27T05:34:10.598Z,-9.50
2018-02-27T05:35:10.501Z,-9.55
2018-02-27T05:36:10.409Z,-9.51
2018-02-27T05:37:10.316Z,-9.53
2018-02-27T05:38:10.221Z,-9.53
2018-02-27T05:39:10.132Z,-9.43
2018-02-27T05:40:10.045Z,-9.43
2018-02-27T05:41:09.943Z,-9.43
2018-02-27T05:42:09.845Z,-9.46
2018-02-27T05:43:09.756Z,-9.54
2018-02-27T05:44:09.660Z,-9.57
2018-02-27T05:45:09.567Z,-9.57
2018-02-27T05:46:09.473Z,-9.53
2018-02-27T05:47:09.377Z,-9.48
2018-02-27T05:48:09.285Z,-9.46
2018-02-27T05:49:09.192Z,-9.43
2018-02-27T05:50:09.094Z,-9.44
2018-02-27T05:51:09.003Z,-9.44
2018-02-27T05:52:08.911Z,-9.55
2018-02-27T05:53:08.819Z,-9.51
2018-02-27T05:54:08.725Z,-9.51
2018-02-27T05:55:08.630Z,-9.53
2018-02-27T05:56:08.534Z,-9.51
2018-02-27T05:57:08.440Z,-9.53
2018-02-27T05:58:08.346Z,-9.60
2018-02-27T05:59:08.266Z,-9.61
2018-02-27T06:00:08.159Z,-9.61
2018-02-27T06:01:08.065Z,-9.54
2018-02-27T06:02:07.981Z,-9.54
2018-02-27T06:03:07.877Z,-9.54
2018-02-27T06:04:07.786Z,-9.54
2018-02-27T06:05:07.691Z,-9.55
2018-02-27T06:06:07.596Z,-9.57
2018-02-27T06:07:07.501Z,-9.55
2018-02-27T06:08:07.408Z,-9.60
2018-02-27T06:09:07.315Z,-9.64
2018-02-27T06:10:07.221Z,-9.60
2018-02-27T06:11:07.174Z,-9.64
2018-02-27T06:12:07.033Z,-9.60
2018-02-27T06:13:06.957Z,-9.68
2018-02-27T06:14:06.848Z,-9.63
2018-02-27T06:15:06.754Z,-9.53
2018-02-27T06:16:06.660Z,-9.55
2018-02-27T06:17:06.563Z,-9.54
2018-02-27T06:18:06.473Z,-9.53
2018-02-27T06:19:06.378Z,-9.61
2018-02-27T06:20:06.313Z,-9.54
2018-02-27T06:21:06.190Z,-9.54
2018-02-27T06:22:06.093Z,-9.50
2018-02-27T06:23:06.034Z,-9.57
2018-02-27T06:24:05.908Z,-9.57
2018-02-27T06:25:05.816Z,-9.48
2018-02-27T06:26:05.718Z,-9.54
2018-02-27T06:27:05.628Z,-9.55
2018-02-27T06:28:05.532Z,-9.51
2018-02-27T06:29:05.437Z,-9.46
2018-02-27T06:30:05.343Z,-9.57
2018-02-27T06:31:05.252Z,-9.54
2018-02-27T06:32:05.156Z,-9.39
2018-02-27T06:33:05.065Z,-9.44
2018-02-27T06:34:04.970Z,-9.51
2018-02-27T06:35:04.874Z,-9.44
2018-02-27T06:36:04.783Z,-9.50
2018-02-27T06:37:04.686Z,-9.46
2018-02-27T06:38:04.590Z,-9.50
2018-02-27T06:39:04.500Z,-9.39
2018-02-27T06:40:04.405Z,-9.33
2018-02-27T06:41:04.314Z,-9.31
2018-02-27T06:42:04.217Z,-9.35
2018-02-27T06:43:04.124Z,-9.33
2018-02-27T06:44:04.030Z,-9.38
2018-02-27T06:45:03.940Z,-9.35
2018-02-27T06:46:03.851Z,-9.33
2018-02-27T06:47:03.748Z,-9.35
2018-02-27T06:48:03.656Z,-9.39
2018-02-27T06:49:03.562Z,-9.33
2018-02-27T06:50:03.468Z,-9.32
2018-02-27T06:51:03.375Z,-9.36
2018-02-27T06:52:03.283Z,-9.21
2018-02-27T06:53:03.185Z,-9.32
2018-02-27T06:54:03.093Z,-9.24
2018-02-27T06:55:03.001Z,-9.21
2018-02-27T06:56:02.910Z,-9.22
2018-02-27T06:57:02.832Z,-9.18
2018-02-27T06:58:02.721Z,-9.18
2018-02-27T06:59:02.628Z,-9.14
2018-02-27T07:00:02.536Z,-9.20
2018-02-27T07:01:02.439Z,-9.25
2018-02-27T07:02:02.344Z,-9.21
2018-02-27T07:03:02.251Z,-9.18
2018-02-27T07:04:02.162Z,-9.24
2018-02-27T07:05:02.065Z,-9.18
2018-02-27T07:06:01.971Z,-9.12
2018-02-27T07:07:01.881Z,-9.17
2018-02-27T07:08:01.791Z,-9.21
2018-02-27T07:09:01.694Z,-9.03
2018-02-27T07:10:01.600Z,-9.11
2018-02-27T07:11:01.504Z,-9.07
2018-02-27T07:12:01.408Z,-8.99
2018-02-27T07:13:01.321Z,-9.11
2018-02-27T07:14:01.223Z,-9.07
2018-02-27T07:15:01.133Z,-9.07
2018-02-27T07:16:01.035Z,-9.04
2018-02-27T07:17:00.942Z,-9.04
2018-02-27T07:18:00.849Z,-8.93
2018-02-27T07:19:00.759Z,-8.90
2018-02-27T07:20:00.664Z,-8.93
2018-02-27T07:21:00.569Z,-8.82
2018-02-27T07:22:00.475Z,-8.85
2018-02-27T07:23:00.382Z,-8.82
2018-02-27T07:24:00.288Z,-8.79
2018-02-27T07:25:00.207Z,-8.75
2018-02-27T07:26:00.106Z,-8.72
2018-02-27T07:27:00.007Z,-8.75
2018-02-27T07:27:59.915Z,-8.78
2018-02-27T07:28:59.822Z,-8.72
2018-02-27T07:29:59.729Z,-8.72
2018-02-27T07:30:59.634Z,-8.65
2018-02-27T07:31:59.543Z,-8.62
2018-02-27T07:32:59.449Z,-8.61
2018-02-27T07:33:59.361Z,-8.72
2018-02-27T07:34:59.264Z,-8.62
2018-02-27T07:35:59.173Z,-8.68
2018-02-27T07:36:59.078Z,-8.58
2018-02-27T07:37:58.983Z,-8.62
2018-02-27T07:38:58.892Z,-8.49
2018-02-27T07:39:58.797Z,-8.44
2018-02-27T07:40:58.704Z,-8.50
2018-02-27T07:41:58.609Z,-8.43
2018-02-27T07:42:58.517Z,-8.49
2018-02-27T07:43:58.432Z,-8.37
2018-02-27T07:44:58.332Z,-8.47
2018-02-27T07:45:58.238Z,-8.50
2018-02-27T07:46:58.147Z,-8.44
2018-02-27T07:47:58.054Z,-8.52
2018-02-27T07:48:57.960Z,-8.55
2018-02-27T07:49:57.872Z,-8.36
2018-02-27T07:50:57.774Z,-8.50
2018-02-27T07:51:57.682Z,-8.34
2018-02-27T07:52:57.587Z,-8.37
2018-02-27T07:53:57.496Z,-8.32
2018-02-27T07:54:57.403Z,-8.34
2018-02-27T07:55:57.310Z,-8.40
2018-02-27T07:56:57.215Z,-8.28
2018-02-27T07:57:57.123Z,-8.23
2018-02-27T07:58:57.030Z,-8.11
2018-02-27T07:59:56.938Z,-8.11
2018-02-27T08:00:56.844Z,-8.18
2018-02-27T08:01:56.749Z,-8.05
2018-02-27T08:02:56.657Z,-8.08
2018-02-27T08:03:56.577Z,-8.11
2018-02-27T08:04:56.473Z,-8.15
2018-02-27T08:05:56.380Z,-8.15
2018-02-27T08:06:56.293Z,-8.16
2018-02-27T08:07:56.193Z,-8.16
2018-02-27T08:08:56.101Z,-8.15
2018-02-27T08:09:56.010Z,-8.07
2018-02-27T08:10:55.964Z,-8.16
2018-02-27T08:11:55.824Z,-8.21
2018-02-27T08:12:55.732Z,-8.15
2018-02-27T08:13:55.638Z,-8.16
2018-02-27T08:14:55.544Z,-8.15
2018-02-27T08:15:55.452Z,-8.22
2018-02-27T08:16:55.361Z,-8.16
2018-02-27T08:17:55.265Z,-8.13
2018-02-27T08:18:55.174Z,-8.07
2018-02-27T08:19:55.082Z,-8.03
2018-02-27T08:20:54.997Z,-8.08
2018-02-27T08:21:54.961Z,-7.99
2018-02-27T08:22:54.805Z,-8.03
2018-02-27T08:23:54.714Z,-7.83
2018-02-27T08:24:54.621Z,-7.88
2018-02-27T08:25:54.526Z,-7.81
2018-02-27T08:26:54.433Z,-7.89
2018-02-27T08:27:54.341Z,-7.81
2018-02-27T08:28:54.249Z,-7.79
2018-02-27T08:29:54.160Z,-7.72
2018-02-27T08:30:54.061Z,-7.71
2018-02-27T08:31:53.969Z,-7.63
2018-02-27T08:32:53.877Z,-7.67
2018-02-27T08:33:53.783Z,-7.53
2018-02-27T08:34:53.691Z,-7.60
2018-02-27T08:35:53.599Z,-7.49
2018-02-27T08:36:53.507Z,-7.54
2018-02-27T08:37:53.413Z,-7.43
2018-02-27T08:38:53.324Z,-7.50
2018-02-27T08:39:53.230Z,-7.42
2018-02-27T08:40:53.136Z,-7.44
2018-02-27T08:41:53.043Z,-7.43
2018-02-27T08:42:52.953Z,-7.38
2018-02-27T08:43:52.863Z,-7.44
2018-02-27T08:44:52.769Z,-7.33
2018-02-27T08:45:52.677Z,-7.25
2018-02-27T08:46:52.582Z,-7.26
2018-02-27T08:47:52.491Z,-7.28
2018-02-27T08:48:52.396Z,-7.29
2018-02-27T08:49:52.305Z,-7.32
2018-02-27T08:50:52.253Z,-7.26
2018-02-27T08:51:52.128Z,-7.22
2018-02-27T08:52:52.030Z,-7.26
2018-02-27T08:53:51.936Z,-7.11
2018-02-27T08:54:51.847Z,-7.21
2018-02-27T08:55:51.754Z,-7.14
2018-02-27T08:56:51.662Z,-7.11
2018-02-27T08:57:51.569Z,-7.08
2018-02-27T08:58:51.477Z,-7.08
2018-02-27T08:59:51.386Z,-7.08
2018-02-27T09:00:51.293Z,-7.03
2018-02-27T09:01:51.200Z,-7.03
2018-02-27T09:02:51.110Z,-7.03
2018-02-27T09:03:51.019Z,-6.96
2018-02-27T09:04:50.927Z,-6.74
2018-02-27T09:05:50.833Z,-6.81
2018-02-27T09:06:50.742Z,-6.76
2018-02-27T09:07:50.649Z,-6.71
2018-02-27T09:08:50.558Z,-6.69
2018-02-27T09:09:50.466Z,-6.72
2018-02-27T09:10:50.374Z,-6.65
2018-02-27T09:11:50.282Z,-6.66
2018-02-27T09:12:50.194Z,-6.58
2018-02-27T09:13:50.097Z,-6.58
2018-02-27T09:14:50.080Z,-6.65
2018-02-27T09:15:49.915Z,-6.53
2018-02-27T09:16:49.826Z,-6.72
2018-02-27T09:17:49.733Z,-6.69
2018-02-27T09:18:49.647Z,-6.81
2018-02-27T09:19:49.553Z,-6.83
2018-02-27T09:20:49.461Z,-6.72
2018-02-27T09:21:49.369Z,-6.81
2018-02-27T09:22:49.277Z,-6.66
2018-02-27T09:23:49.184Z,-6.76
2018-02-27T09:24:49.094Z,-6.69
2018-02-27T09:25:49.013Z,-6.66
2018-02-27T09:26:48.909Z,-6.63
2018-02-27T09:27:48.818Z,-6.50
2018-02-27T09:28:48.737Z,-6.54
2018-02-27T09:29:48.634Z,-6.56
2018-02-27T09:30:48.545Z,-6.53
2018-02-27T09:31:48.450Z,-6.47
2018-02-27T09:32:48.363Z,-6.49
2018-02-27T09:33:48.267Z,-6.50
2018-02-27T09:34:48.177Z,-6.53
2018-02-27T09:35:48.089Z,-6.49
2018-02-27T09:36:47.995Z,-6.53
2018-02-27T09:37:47.908Z,-6.50
2018-02-27T09:38:47.830Z,-6.41
2018-02-27T09:39:47.721Z,-6.32
2018-02-27T09:40:47.632Z,-6.32
2018-02-27T09:41:47.542Z,-6.29
2018-02-27T09:42:47.446Z,-6.29
2018-02-27T09:43:47.363Z,-6.24
2018-02-27T09:44:47.282Z,-6.23
2018-02-27T09:45:47.173Z,-6.15
2018-02-27T09:46:47.083Z,-6.15
2018-02-27T09:47:46.990Z,-6.05
2018-02-27T09:48:46.899Z,-6.10
2018-02-27T09:49:46.809Z,-5.97
2018-02-27T09:50:46.719Z,-5.90
2018-02-27T09:51:46.627Z,-5.89
2018-02-27T09:52:46.538Z,-5.82
2018-02-27T09:53:46.448Z,-5.85
2018-02-27T09:54:46.354Z,-5.79
2018-02-27T09:55:46.262Z,-5.71
2018-02-27T09:56:46.174Z,-5.63
2018-02-27T09:57:46.082Z,-5.57
2018-02-27T09:58:45.990Z,-5.46
2018-02-27T09:59:45.909Z,-5.46
2018-02-27T10:00:45.814Z,-5.46
2018-02-27T10:01:45.720Z,-5.40
2018-02-27T10:02:45.628Z,-5.53
2018-02-27T10:03:45.537Z,-5.49
2018-02-27T10:04:45.448Z,-5.63
2018-02-27T10:05:45.364Z,-5.58
2018-02-27T10:06:45.266Z,-5.57
2018-02-27T10:07:45.178Z,-5.57
2018-02-27T10:08:45.085Z,-5.68
2018-02-27T10:09:44.996Z,-5.58
2018-02-27T10:10:44.908Z,-5.57
2018-02-27T10:11:44.828Z,-5.61
2018-02-27T10:12:44.726Z,-5.57
2018-02-27T10:13:44.634Z,-5.56
2018-02-27T10:14:44.542Z,-5.43
2018-02-27T10:15:44.453Z,-5.40
2018-02-27T10:16:44.363Z,-5.45
2018-02-27T10:17:44.274Z,-5.49
2018-02-27T10:18:44.185Z,-5.39
2018-02-27T10:19:44.092Z,-5.36
2018-02-27T10:20:44.007Z,-5.42
2018-02-27T10:21:43.911Z,-5.38
2018-02-27T10:22:43.824Z,-5.42
2018-02-27T10:23:43.736Z,-5.28
2018-02-27T10:24:43.642Z,-5.25
2018-02-27T10:25:43.552Z,-5.21
2018-02-27T10:26:43.463Z,-5.18
2018-02-27T10:27:43.373Z,-5.14
2018-02-27T10:28:43.282Z,-5.22
2018-02-27T10:29:43.192Z,-5.08
2018-02-27T10:30:43.111Z,-5.14
2018-02-27T10:31:43.013Z,-5.14
2018-02-27T10:32:42.939Z,-5.03
2018-02-27T10:33:42.830Z,-4.95
2018-02-27T10:34:42.788Z,-4.89
2018-02-27T10:35:42.656Z,-4.87
2018-02-27T10:36:42.565Z,-4.87
2018-02-27T10:37:42.475Z,-4.75
2018-02-27T10:38:42.396Z,-4.71
2018-02-27T10:39:42.294Z,-4.70
2018-02-27T10:40:42.241Z,-4.81
2018-02-27T10:41:42.116Z,-4.69
2018-02-27T10:42:42.027Z,-4.69
2018-02-27T10:43:41.936Z,-4.61
2018-02-27T10:44:41.847Z,-4.66
2018-02-27T10:45:41.757Z,-4.61
2018-02-27T10:46:41.668Z,-4.57
2018-02-27T10:47:41.604Z,-4.53
2018-02-27T10:48:41.489Z,-4.59
2018-02-27T10:49:41.401Z,-4.70
2018-02-27T10:50:41.315Z,-4.61
2018-02-27T10:51:41.224Z,-4.55
2018-02-27T10:52:41.142Z,-4.50
2018-02-27T10:53:41.044Z,-4.45
2018-02-27T10:54:40.954Z,-4.48
2018-02-27T10:55:40.871Z,-4.59
2018-02-27T10:56:40.778Z,-4.57
2018-02-27T10:57:40.688Z,-4.75
2018-02-27T10:58:40.597Z,-4.85
2018-02-27T10:59:40.508Z,-5.02
2018-02-27T11:00:40.420Z,-4.77
2018-02-27T11:01:40.332Z,-4.79
2018-02-27T11:02:40.239Z,-4.70
2018-02-27T11:03:40.221Z,-4.66
2018-02-27T11:04:40.064Z,-4.75
2018-02-27T11:05:39.973Z,-4.73
2018-02-27T11:06:39.884Z,-4.63
2018-02-27T11:07:39.797Z,-4.61
2018-02-27T11:08:39.706Z,-4.49
2018-02-27T11:09:39.664Z,-4.50
2018-02-27T11:10:39.528Z,-4.42
2018-02-27T11:11:39.442Z,-4.45
2018-02-27T11:12:39.351Z,-4.39
2018-02-27T11:13:39.260Z,-4.28
2018-02-27T11:14:39.171Z,-4.16
2018-02-27T11:15:39.085Z,-3.98
2018-02-27T11:16:38.998Z,-3.85
2018-02-27T11:17:38.907Z,-3.83
2018-02-27T11:18:38.822Z,-3.75
2018-02-27T11:19:38.732Z,-3.67
2018-02-27T11:20:38.646Z,-3.55
2018-02-27T11:21:38.555Z,-3.44
2018-02-27T11:22:38.469Z,-3.10
2018-02-27T11:23:38.378Z,-2.95
2018-02-27T11:24:38.291Z,-2.74
2018-02-27T11:25:38.204Z,-2.50
2018-02-27T11:26:38.137Z,-2.21
2018-02-27T11:27:38.093Z,-1.95
2018-02-27T11:28:37.939Z,-1.82
2018-02-27T11:29:37.855Z,-1.62
2018-02-27T11:30:37.764Z,-1.29
2018-02-27T11:31:37.678Z,-0.91
2018-02-27T11:32:37.594Z,-1.01
2018-02-27T11:33:37.507Z,-1.38
2018-02-27T11:34:37.423Z,-1.69
2018-02-27T11:35:37.334Z,-2.04
2018-02-27T11:36:37.255Z,-2.18
2018-02-27T11:37:37.161Z,-2.42
2018-02-27T11:38:37.076Z,-2.41
2018-02-27T11:39:36.989Z,-2.60
2018-02-27T11:40:36.905Z,-2.66
2018-02-27T11:41:36.816Z,-2.70
2018-02-27T11:42:36.733Z,-2.69
2018-02-27T11:43:36.650Z,-1.79
2018-02-27T11:44:36.558Z,-1.09
2018-02-27T11:45:36.478Z,-1.48
2018-02-27T11:46:36.388Z,-0.68
2018-02-27T11:47:36.301Z,-0.78
2018-02-27T11:48:36.217Z,-0.99
2018-02-27T11:49:36.131Z,-0.94
2018-02-27T11:50:36.048Z,-1.25
2018-02-27T11:51:35.959Z,-1.53
2018-02-27T11:52:35.875Z,-1.72
2018-02-27T11:53:35.792Z,-1.94
2018-02-27T11:54:35.701Z,-1.94
2018-02-27T11:55:35.618Z,-1.94
2018-02-27T11:56:35.532Z,-1.92
2018-02-27T11:57:35.452Z,-1.95
2018-02-27T11:58:35.361Z,-2.04
2018-02-27T11:59:35.277Z,-1.95
2018-02-27T12:00:35.194Z,-1.94
2018-02-27T12:01:35.106Z,-1.80
2018-02-27T12:02:35.020Z,-1.08
2018-02-27T12:03:34.934Z,-0.71
2018-02-27T12:04:34.851Z,-0.49
2018-02-27T12:05:34.765Z,-0.49
2018-02-27T12:06:34.680Z,-0.23
2018-02-27T12:07:34.595Z,-0.02
2018-02-27T12:08:34.512Z,0.07
2018-02-27T12:09:34.424Z,-0.14
2018-02-27T12:10:34.341Z,0.00
2018-02-27T12:11:34.259Z,0.19
2018-02-27T12:12:34.174Z,0.26
2018-02-27T12:13:34.104Z,0.40
2018-02-27T12:14:34.006Z,0.46
2018-02-27T12:15:33.925Z,0.63
2018-02-27T12:16:33.847Z,0.70
2018-02-27T12:17:33.758Z,0.32
2018-02-27T12:18:33.675Z,0.22
2018-02-27T12:19:33.590Z,0.12
2018-02-27T12:20:33.508Z,-0.29
2018-02-27T12:21:33.425Z,-0.75
2018-02-27T12:22:33.349Z,-0.94
2018-02-27T12:23:33.259Z,-0.65
2018-02-27T12:24:33.176Z,-0.41
2018-02-27T12:25:33.090Z,-0.39
2018-02-27T12:26:33.020Z,-0.10
2018-02-27T12:27:32.927Z,0.22
2018-02-27T12:28:32.846Z,0.58
2018-02-27T12:29:32.755Z,0.70
2018-02-27T12:30:32.674Z,0.59
2018-02-27T12:31:32.594Z,0.47
2018-02-27T12:32:32.514Z,0.15
2018-02-27T12:33:32.432Z,-0.20
2018-02-27T12:34:32.341Z,0.16
2018-02-27T12:35:32.870Z,0.44
2018-02-27T12:36:32.177Z,0.58
2018-02-27T12:37:32.096Z,0.76
2018-02-27T12:38:32.010Z,1.04
2018-02-27T12:39:31.928Z,1.16
2018-02-27T12:40:31.847Z,1.49
2018-02-27T12:41:31.762Z,1.08
2018-02-27T12:42:31.683Z,0.80
2018-02-27T12:43:31.601Z,0.98
2018-02-27T12:44:31.520Z,0.96
2018-02-27T12:45:31.435Z,1.08
2018-02-27T12:46:31.362Z,1.13
2018-02-27T12:47:31.274Z,1.20
2018-02-27T12:48:31.193Z,1.17
2018-02-27T12:49:31.109Z,1.38
2018-02-27T12:50:31.033Z,1.42
2018-02-27T12:51:30.945Z,1.78
2018-02-27T12:52:30.865Z,1.95